createdAt,value
2023-03-12T00:00:07.000Z,-1.03
2023-03-12T00:01:07.000Z,-1.02
2023-03-12T00:02:07.000Z,-1.03
2023-03-12T00:03:07.000Z,-0.99
2023-03-12T00:04:07.000Z,-1.00
2023-03-12T00:05:07.000Z,-1.03
2023-03-12T00:06:07.000Z,-1.07
2023-03-12T00:07:07.000Z,-1.02
2023-03-12T00:08:07.000Z,-1.03
2023-03-12T00:09:07.000Z,-1.03
2023-03-12T00:10:07.000Z,-1.03
2023-03-12T00:11:06.000Z,-1.03
2023-03-12T00:12:06.000Z,-1.03
2023-03-12T00:13:06.000Z,-1.03
2023-03-12T00:14:06.000Z,-1.00
2023-03-12T00:15:06.000Z,-1.03
2023-03-12T00:16:06.000Z,-1.07
2023-03-12T00:17:06.000Z,-1.02
2023-03-12T00:18:06.000Z,-1.00
2023-03-12T00:19:06.000Z,-1.05
2023-03-12T00:20:06.000Z,-1.00
2023-03-12T00:21:06.000Z,-1.03
2023-03-12T00:22:06.000Z,-1.02
2023-03-12T00:23:06.000Z,-1.02
2023-03-12T00:24:06.000Z,-1.00
2023-03-12T00:25:06.000Z,-1.07
2023-03-12T00:26:06.000Z,-1.00
2023-03-12T00:27:06.000Z,-1.03
2023-03-12T00:28:06.000Z,-1.02
2023-03-12T00:29:06.000Z,-1.00
2023-03-12T00:30:06.000Z,-1.03
2023-03-12T00:31:06.000Z,-1.02
2023-03-12T00:32:06.000Z,-1.05
2023-03-12T00:33:06.000Z,-1.08
2023-03-12T00:34:06.000Z,-1.07
2023-03-12T00:35:06.000Z,-1.10
2023-03-12T00:36:06.000Z,-1.05
2023-03-12T00:37:06.000Z,-1.11
2023-03-12T00:38:06.000Z,-1.08
2023-03-12T00:39:06.000Z,-1.07
2023-03-12T00:40:06.000Z,-1.03
2023-03-12T00:41:06.000Z,-1.05
2023-03-12T00:42:06.000Z,-0.99
2023-03-12T00:43:06.000Z,-1.00
2023-03-12T00:44:06.000Z,-1.05
2023-03-12T00:45:06.000Z,-1.03
2023-03-12T00:46:06.000Z,-0.99
2023-03-12T00:47:06.000Z,-1.02
2023-03-12T00:48:06.000Z,-0.96
2023-03-12T00:49:06.000Z,-0.97
2023-03-12T00:50:06.000Z,-0.96
2023-03-12T00:51:06.000Z,-1.02
2023-03-12T00:52:06.000Z,-0.99
2023-03-12T00:53:06.000Z,-0.97
2023-03-12T00:54:06.000Z,-0.99
2023-03-12T00:55:06.000Z,-0.97
2023-03-12T00:56:06.000Z,-1.03
2023-03-12T00:57:06.000Z,-1.00
2023-03-12T00:58:06.000Z,-1.03
2023-03-12T00:59:06.000Z,-1.02
2023-03-12T01:00:06.000Z,-1.05
2023-03-12T01:01:06.000Z,-1.03
2023-03-12T01:02:06.000Z,-1.02
2023-03-12T01:03:06.000Z,-1.03
2023-03-12T01:04:06.000Z,-1.03
2023-03-12T01:05:06.000Z,-1.00
2023-03-12T01:06:06.000Z,-1.03
2023-03-12T01:07:06.000Z,-1.07
2023-03-12T01:08:06.000Z,-1.00
2023-03-12T01:09:06.000Z,-1.02
2023-03-12T01:10:06.000Z,-0.97
2023-03-12T01:11:06.000Z,-1.00
2023-03-12T01:12:06.000Z,-0.97
2023-03-12T01:13:06.000Z,-1.00
2023-03-12T01:14:06.000Z,-0.96
2023-03-12T01:15:06.000Z,-0.96
2023-03-12T01:16:06.000Z,-1.00
2023-03-12T01:17:06.000Z,-1.00
2023-03-12T01:18:06.000Z,-1.00
2023-03-12T01:19:06.000Z,-1.03
2023-03-12T01:20:06.000Z,-1.02
2023-03-12T01:21:06.000Z,-1.00
2023-03-12T01:22:06.000Z,-1.02
2023-03-12T01:23:06.000Z,-1.00
2023-03-12T01:24:06.000Z,-1.00
2023-03-12T01:25:06.000Z,-1.02
2023-03-12T01:26:06.000Z,-0.99
2023-03-12T01:27:06.000Z,-0.99
2023-03-12T01:28:06.000Z,-1.00
2023-03-12T01:29:06.000Z,-1.00
2023-03-12T01:30:06.000Z,-1.00
2023-03-12T01:31:06.000Z,-1.00
2023-03-12T01:32:06.000Z,-1.02
2023-03-12T01:33:06.000Z,-0.99
2023-03-12T01:34:06.000Z,-1.02
2023-03-12T01:35:06.000Z,-1.03
2023-03-12T01:36:06.000Z,-1.03
2023-03-12T01:37:06.000Z,-1.02
2023-03-12T01:38:06.000Z,-1.02
2023-03-12T01:39:06.000Z,-0.97
2023-03-12T01:40:06.000Z,-0.99
2023-03-12T01:41:06.000Z,-0.99
2023-03-12T01:42:06.000Z,-1.02
2023-03-12T01:43:06.000Z,-1.03
2023-03-12T01:44:06.000Z,-1.03
2023-03-12T01:45:06.000Z,-1.00
2023-03-12T01:46:06.000Z,-1.02
2023-03-12T01:47:06.000Z,-0.99
2023-03-12T01:48:06.000Z,-0.99
2023-03-12T01:49:06.000Z,-1.02
2023-03-12T01:50:06.000Z,-1.00
2023-03-12T01:51:06.000Z,-0.99
2023-03-12T01:52:06.000Z,-1.02
2023-03-12T01:53:06.000Z,-1.00
2023-03-12T01:54:06.000Z,-0.99
2023-03-12T01:55:06.000Z,-1.02
2023-03-12T01:56:06.000Z,-1.02
2023-03-12T01:57:06.000Z,-1.03
2023-03-12T01:58:06.000Z,-1.00
2023-03-12T01:59:06.000Z,-1.05
2023-03-12T02:00:06.000Z,-1.03
2023-03-12T02:01:05.000Z,-1.00
2023-03-12T02:02:05.000Z,-1.00
2023-03-12T02:03:05.000Z,-1.02
2023-03-12T02:04:05.000Z,-1.02
2023-03-12T02:05:05.000Z,-1.03
2023-03-12T02:06:05.000Z,-1.03
2023-03-12T02:07:05.000Z,-1.05
2023-03-12T02:08:05.000Z,-1.07
2023-03-12T02:09:05.000Z,-1.03
2023-03-12T02:10:05.000Z,-1.00
2023-03-12T02:11:05.000Z,-1.05
2023-03-12T02:12:05.000Z,-1.07
2023-03-12T02:13:05.000Z,-1.03
2023-03-12T02:14:05.000Z,-1.07
2023-03-12T02:15:05.000Z,-1.05
2023-03-12T02:16:05.000Z,-1.02
2023-03-12T02:17:05.000Z,-1.05
2023-03-12T02:18:05.000Z,-1.03
2023-03-12T02:19:05.000Z,-1.10
2023-03-12T02:20:05.000Z,-1.10
2023-03-12T02:21:05.000Z,-1.08
2023-03-12T02:22:05.000Z,-1.10
2023-03-12T02:23:05.000Z,-1.10
2023-03-12T02:24:05.000Z,-1.07
2023-03-12T02:25:05.000Z,-1.07
2023-03-12T02:26:05.000Z,-1.07
2023-03-12T02:27:05.000Z,-1.05
2023-03-12T02:28:05.000Z,-1.08
2023-03-12T02:29:05.000Z,-1.07
2023-03-12T02:30:05.000Z,-1.05
2023-03-12T02:31:05.000Z,-1.05
2023-03-12T02:32:05.000Z,-1.05
2023-03-12T02:33:05.000Z,-1.08
2023-03-12T02:34:05.000Z,-1.02
2023-03-12T02:35:05.000Z,-1.03
2023-03-12T02:36:05.000Z,-1.05
2023-03-12T02:37:05.000Z,-1.03
2023-03-12T02:38:05.000Z,-1.11
2023-03-12T02:39:05.000Z,-1.07
2023-03-12T02:40:05.000Z,-1.05
2023-03-12T02:41:05.000Z,-1.00
2023-03-12T02:42:05.000Z,-1.08
2023-03-12T02:43:05.000Z,-1.02
2023-03-12T02:44:05.000Z,-1.02
2023-03-12T02:45:05.000Z,-1.07
2023-03-12T02:46:05.000Z,-1.05
2023-03-12T02:47:05.000Z,-1.08
2023-03-12T02:48:05.000Z,-1.10
2023-03-12T02:49:05.000Z,-1.11
2023-03-12T02:50:05.000Z,-1.10
2023-03-12T02:51:05.000Z,-1.08
2023-03-12T02:52:05.000Z,-1.13
2023-03-12T02:53:05.000Z,-1.11
2023-03-12T02:54:05.000Z,-1.11
2023-03-12T02:55:05.000Z,-1.17
2023-03-12T02:56:05.000Z,-1.17
2023-03-12T02:57:05.000Z,-1.13
2023-03-12T02:58:05.000Z,-1.13
2023-03-12T02:59:05.000Z,-1.18
2023-03-12T03:00:05.000Z,-1.15
2023-03-12T03:01:05.000Z,-1.18
2023-03-12T03:02:05.000Z,-1.21
2023-03-12T03:03:05.000Z,-1.18
2023-03-12T03:04:05.000Z,-1.23
2023-03-12T03:05:05.000Z,-1.25
2023-03-12T03:06:05.000Z,-1.21
2023-03-12T03:07:05.000Z,-1.20
2023-03-12T03:08:05.000Z,-1.26
2023-03-12T03:09:05.000Z,-1.26
2023-03-12T03:10:05.000Z,-1.28
2023-03-12T03:11:05.000Z,-1.25
2023-03-12T03:12:05.000Z,-1.26
2023-03-12T03:13:05.000Z,-1.23
2023-03-12T03:14:05.000Z,-1.25
2023-03-12T03:15:05.000Z,-1.26
2023-03-12T03:16:05.000Z,-1.31
2023-03-12T03:17:05.000Z,-1.28
2023-03-12T03:18:05.000Z,-1.33
2023-03-12T03:19:05.000Z,-1.28
2023-03-12T03:20:05.000Z,-1.31
2023-03-12T03:21:05.000Z,-1.32
2023-03-12T03:22:05.000Z,-1.29
2023-03-12T03:23:05.000Z,-1.29
2023-03-12T03:24:05.000Z,-1.31
2023-03-12T03:25:05.000Z,-1.32
2023-03-12T03:26:05.000Z,-1.32
2023-03-12T03:27:05.000Z,-1.33
2023-03-12T03:28:05.000Z,-1.33
2023-03-12T03:29:05.000Z,-1.33
2023-03-12T03:30:05.000Z,-1.35
2023-03-12T03:31:05.000Z,-1.36
2023-03-12T03:32:05.000Z,-1.39
2023-03-12T03:33:05.000Z,-1.38
2023-03-12T03:34:05.000Z,-1.35
2023-03-12T03:35:05.000Z,-1.33
2023-03-12T03:36:05.000Z,-1.36
2023-03-12T03:37:05.000Z,-1.32
2023-03-12T03:38:05.000Z,-1.32
2023-03-12T03:39:05.000Z,-1.35
2023-03-12T03:40:05.000Z,-1.29
2023-03-12T03:41:05.000Z,-1.33
2023-03-12T03:42:05.000Z,-1.28
2023-03-12T03:43:05.000Z,-1.32
2023-03-12T03:44:05.000Z,-1.33
2023-03-12T03:45:05.000Z,-1.32
2023-03-12T03:46:05.000Z,-1.35
2023-03-12T03:47:05.000Z,-1.38
2023-03-12T03:48:05.000Z,-1.39
2023-03-12T03:49:05.000Z,-1.35
2023-03-12T03:50:05.000Z,-1.41
2023-03-12T03:51:05.000Z,-1.41
2023-03-12T03:52:04.000Z,-1.38
2023-03-12T03:53:04.000Z,-1.43
2023-03-12T03:54:04.000Z,-1.44
2023-03-12T03:55:04.000Z,-1.41
2023-03-12T03:56:04.000Z,-1.43
2023-03-12T03:57:04.000Z,-1.44
2023-03-12T03:58:04.000Z,-1.43
2023-03-12T03:59:04.000Z,-1.43
2023-03-12T04:00:04.000Z,-1.46
2023-03-12T04:01:04.000Z,-1.44
2023-03-12T04:02:04.000Z,-1.41
2023-03-12T04:03:04.000Z,-1.44
2023-03-12T04:04:04.000Z,-1.46
2023-03-12T04:05:04.000Z,-1.44
2023-03-12T04:06:04.000Z,-1.46
2023-03-12T04:07:04.000Z,-1.47
2023-03-12T04:08:04.000Z,-1.50
2023-03-12T04:09:04.000Z,-1.47
2023-03-12T04:10:04.000Z,-1.47
2023-03-12T04:11:04.000Z,-1.49
2023-03-12T04:12:04.000Z,-1.47
2023-03-12T04:13:04.000Z,-1.47
2023-03-12T04:14:04.000Z,-1.49
2023-03-12T04:15:04.000Z,-1.43
2023-03-12T04:16:04.000Z,-1.44
2023-03-12T04:17:04.000Z,-1.44
2023-03-12T04:18:04.000Z,-1.47
2023-03-12T04:19:04.000Z,-1.44
2023-03-12T04:20:04.000Z,-1.47
2023-03-12T04:21:04.000Z,-1.46
2023-03-12T04:22:04.000Z,-1.47
2023-03-12T04:23:04.000Z,-1.44
2023-03-12T04:24:04.000Z,-1.41
2023-03-12T04:25:04.000Z,-1.43
2023-03-12T04:26:04.000Z,-1.43
2023-03-12T04:27:04.000Z,-1.44
2023-03-12T04:28:04.000Z,-1.44
2023-03-12T04:29:04.000Z,-1.39
2023-03-12T04:30:04.000Z,-1.39
2023-03-12T04:31:04.000Z,-1.41
2023-03-12T04:32:04.000Z,-1.43
2023-03-12T04:33:04.000Z,-1.46
2023-03-12T04:34:04.000Z,-1.44
2023-03-12T04:35:04.000Z,-1.44
2023-03-12T04:36:04.000Z,-1.44
2023-03-12T04:37:04.000Z,-1.46
2023-03-12T04:38:04.000Z,-1.50
2023-03-12T04:39:04.000Z,-1.44
2023-03-12T04:40:04.000Z,-1.47
2023-03-12T04:41:04.000Z,-1.47
2023-03-12T04:42:04.000Z,-1.49
2023-03-12T04:43:04.000Z,-1.49
2023-03-12T04:44:04.000Z,-1.49
2023-03-12T04:45:04.000Z,-1.49
2023-03-12T04:46:04.000Z,-1.49
2023-03-12T04:47:04.000Z,-1.51
2023-03-12T04:48:04.000Z,-1.51
2023-03-12T04:49:04.000Z,-1.54
2023-03-12T04:50:04.000Z,-1.57
2023-03-12T04:51:04.000Z,-1.51
2023-03-12T04:52:04.000Z,-1.53
2023-03-12T04:53:04.000Z,-1.54
2023-03-12T04:54:04.000Z,-1.56
2023-03-12T04:55:04.000Z,-1.54
2023-03-12T04:56:04.000Z,-1.53
2023-03-12T04:57:04.000Z,-1.51
2023-03-12T04:58:04.000Z,-1.54
2023-03-12T04:59:04.000Z,-1.50
2023-03-12T05:00:04.000Z,-1.56
2023-03-12T05:01:04.000Z,-1.57
2023-03-12T05:02:04.000Z,-1.50
2023-03-12T05:03:04.000Z,-1.57
2023-03-12T05:04:04.000Z,-1.56
2023-03-12T05:05:04.000Z,-1.51
2023-03-12T05:06:04.000Z,-1.53
2023-03-12T05:07:04.000Z,-1.54
2023-03-12T05:08:04.000Z,-1.53
2023-03-12T05:09:04.000Z,-1.51
2023-03-12T05:10:04.000Z,-1.50
2023-03-12T05:11:04.000Z,-1.46
2023-03-12T05:12:04.000Z,-1.47
2023-03-12T05:13:04.000Z,-1.47
2023-03-12T05:14:04.000Z,-1.51
2023-03-12T05:15:04.000Z,-1.47
2023-03-12T05:16:04.000Z,-1.49
2023-03-12T05:17:04.000Z,-1.44
2023-03-12T05:18:04.000Z,-1.44
2023-03-12T05:19:04.000Z,-1.43
2023-03-12T05:20:04.000Z,-1.46
2023-03-12T05:21:04.000Z,-1.41
2023-03-12T05:22:04.000Z,-1.46
2023-03-12T05:23:04.000Z,-1.43
2023-03-12T05:24:04.000Z,-1.38
2023-03-12T05:25:04.000Z,-1.41
2023-03-12T05:26:04.000Z,-1.33
2023-03-12T05:27:04.000Z,-1.39
2023-03-12T05:28:04.000Z,-1.38
2023-03-12T05:29:04.000Z,-1.36
2023-03-12T05:30:04.000Z,-1.38
2023-03-12T05:31:04.000Z,-1.36
2023-03-12T05:32:04.000Z,-1.35
2023-03-12T05:33:04.000Z,-1.43
2023-03-12T05:34:04.000Z,-1.41
2023-03-12T05:35:04.000Z,-1.39
2023-03-12T05:36:04.000Z,-1.44
2023-03-12T05:37:04.000Z,-1.46
2023-03-12T05:38:04.000Z,-1.50
2023-03-12T05:39:04.000Z,-1.53
2023-03-12T05:40:04.000Z,-1.53
2023-03-12T05:41:04.000Z,-1.54
2023-03-12T05:42:04.000Z,-1.53
2023-03-12T05:43:03.000Z,-1.54
2023-03-12T05:44:03.000Z,-1.64
2023-03-12T05:45:03.000Z,-1.62
2023-03-12T05:46:03.000Z,-1.64
2023-03-12T05:47:03.000Z,-1.65
2023-03-12T05:48:03.000Z,-1.64
2023-03-12T05:49:03.000Z,-1.72
2023-03-12T05:50:03.000Z,-1.67
2023-03-12T05:51:03.000Z,-1.75
2023-03-12T05:52:03.000Z,-1.71
2023-03-12T05:53:03.000Z,-1.74
2023-03-12T05:54:03.000Z,-1.77
2023-03-12T05:55:03.000Z,-1.74
2023-03-12T05:56:03.000Z,-1.77
2023-03-12T05:57:03.000Z,-1.80
2023-03-12T05:58:03.000Z,-1.78
2023-03-12T05:59:03.000Z,-1.78
2023-03-12T06:00:03.000Z,-1.78
2023-03-12T06:01:03.000Z,-1.82
2023-03-12T06:02:03.000Z,-1.80
2023-03-12T06:03:03.000Z,-1.82
2023-03-12T06:04:03.000Z,-1.85
2023-03-12T06:05:03.000Z,-1.85
2023-03-12T06:06:03.000Z,-1.78
2023-03-12T06:07:03.000Z,-1.83
2023-03-12T06:08:03.000Z,-1.77
2023-03-12T06:09:03.000Z,-1.80
2023-03-12T06:10:03.000Z,-1.77
2023-03-12T06:11:03.000Z,-1.75
2023-03-12T06:12:03.000Z,-1.74
2023-03-12T06:13:03.000Z,-1.77
2023-03-12T06:14:03.000Z,-1.75
2023-03-12T06:15:03.000Z,-1.71
2023-03-12T06:16:03.000Z,-1.71
2023-03-12T06:17:03.000Z,-1.70
2023-03-12T06:18:03.000Z,-1.67
2023-03-12T06:19:03.000Z,-1.65
2023-03-12T06:20:03.000Z,-1.67
2023-03-12T06:21:03.000Z,-1.56
2023-03-12T06:22:03.000Z,-1.59
2023-03-12T06:23:03.000Z,-1.54
2023-03-12T06:24:03.000Z,-1.54
2023-03-12T06:25:03.000Z,-1.51
2023-03-12T06:26:03.000Z,-1.51
2023-03-12T06:27:03.000Z,-1.53
2023-03-12T06:28:03.000Z,-1.46
2023-03-12T06:29:03.000Z,-1.46
2023-03-12T06:30:03.000Z,-1.41
2023-03-12T06:31:03.000Z,-1.41
2023-03-12T06:32:03.000Z,-1.39
2023-03-12T06:33:03.000Z,-1.32
2023-03-12T06:34:03.000Z,-1.29
2023-03-12T06:35:03.000Z,-1.21
2023-03-12T06:36:03.000Z,-1.18
2023-03-12T06:37:03.000Z,-1.14
2023-03-12T06:38:03.000Z,-1.10
2023-03-12T06:39:03.000Z,-1.00
2023-03-12T06:40:03.000Z,-0.96
2023-03-12T06:41:03.000Z,-0.90
2023-03-12T06:42:03.000Z,-0.89
2023-03-12T06:43:03.000Z,-0.78
2023-03-12T06:44:03.000Z,-0.81
2023-03-12T06:45:03.000Z,-0.74
2023-03-12T06:46:03.000Z,-0.68
2023-03-12T06:47:03.000Z,-0.70
2023-03-12T06:48:03.000Z,-0.67
2023-03-12T06:49:03.000Z,-0.62
2023-03-12T06:50:03.000Z,-0.59
2023-03-12T06:51:03.000Z,-0.53
2023-03-12T06:52:03.000Z,-0.53
2023-03-12T06:53:03.000Z,-0.49
2023-03-12T06:54:03.000Z,-0.44
2023-03-12T06:55:03.000Z,-0.47
2023-03-12T06:56:03.000Z,-0.39
2023-03-12T06:57:03.000Z,-0.38
2023-03-12T06:58:03.000Z,-0.37
2023-03-12T06:59:03.000Z,-0.38
2023-03-12T07:00:03.000Z,-0.30
2023-03-12T07:01:03.000Z,-0.26
2023-03-12T07:02:03.000Z,-0.17
2023-03-12T07:03:03.000Z,-0.17
2023-03-12T07:04:03.000Z,-0.08
2023-03-12T07:05:03.000Z,-0.02
2023-03-12T07:06:03.000Z,0.01
2023-03-12T07:07:03.000Z,0.02
2023-03-12T07:08:03.000Z,0.04
2023-03-12T07:09:03.000Z,0.08
2023-03-12T07:10:03.000Z,0.07
2023-03-12T07:11:03.000Z,0.08
2023-03-12T07:12:03.000Z,0.12
2023-03-12T07:13:03.000Z,0.10
2023-03-12T07:14:03.000Z,0.10
2023-03-12T07:15:03.000Z,0.17
2023-03-12T07:16:03.000Z,0.17
2023-03-12T07:17:03.000Z,0.16
2023-03-12T07:18:03.000Z,0.22
2023-03-12T07:19:03.000Z,0.20
2023-03-12T07:20:03.000Z,0.25
2023-03-12T07:21:03.000Z,0.28
2023-03-12T07:22:03.000Z,0.28
2023-03-12T07:23:03.000Z,0.30
2023-03-12T07:24:03.000Z,0.35
2023-03-12T07:25:03.000Z,0.41
2023-03-12T07:26:03.000Z,0.43
2023-03-12T07:27:03.000Z,0.45
2023-03-12T07:28:03.000Z,0.52
2023-03-12T07:29:03.000Z,0.60
2023-03-12T07:30:03.000Z,0.56
2023-03-12T07:31:03.000Z,0.63
2023-03-12T07:32:03.000Z,0.68
2023-03-12T07:33:03.000Z,0.74
2023-03-12T07:34:02.000Z,0.77
2023-03-12T07:35:02.000Z,0.84
2023-03-12T07:36:02.000Z,0.84
2023-03-12T07:37:02.000Z,0.93
2023-03-12T07:38:02.000Z,1.00
2023-03-12T07:39:02.000Z,0.99
2023-03-12T07:40:02.000Z,1.07
2023-03-12T07:41:02.000Z,1.11
2023-03-12T07:42:02.000Z,1.16
2023-03-12T07:42:02.000Z,1.16
2023-03-12T07:43:02.000Z,1.20
2023-03-12T07:43:02.000Z,1.20
2023-03-12T07:44:02.000Z,1.21
2023-03-12T07:44:02.000Z,1.21
2023-03-12T07:45:02.000Z,1.26
2023-03-12T07:45:02.000Z,1.26
2023-03-12T07:46:02.000Z,1.31
2023-03-12T07:46:02.000Z,1.31
2023-03-12T07:47:02.000Z,1.28
2023-03-12T07:48:02.000Z,1.34
2023-03-12T07:49:02.000Z,1.42
2023-03-12T07:50:02.000Z,1.46
2023-03-12T07:51:02.000Z,1.46
2023-03-12T07:52:02.000Z,1.53
2023-03-12T07:53:02.000Z,1.54
2023-03-12T07:54:02.000Z,1.60
2023-03-12T07:55:02.000Z,1.65
2023-03-12T07:56:02.000Z,1.64
2023-03-12T07:57:02.000Z,1.70
2023-03-12T07:58:02.000Z,1.72
2023-03-12T07:59:02.000Z,1.72
2023-03-12T08:00:02.000Z,1.72
2023-03-12T08:01:02.000Z,1.75
2023-03-12T08:02:02.000Z,1.79
2023-03-12T08:03:02.000Z,1.79
2023-03-12T08:04:02.000Z,1.89
2023-03-12T08:05:02.000Z,1.88
2023-03-12T08:06:02.000Z,1.92
2023-03-12T08:07:02.000Z,1.98
2023-03-12T08:08:02.000Z,2.00
2023-03-12T08:09:02.000Z,2.09
2023-03-12T08:10:02.000Z,2.19
2023-03-12T08:11:02.000Z,2.22
2023-03-12T08:12:02.000Z,2.26
2023-03-12T08:13:02.000Z,2.32
2023-03-12T08:14:02.000Z,2.38
2023-03-12T08:15:02.000Z,2.40
2023-03-12T08:16:02.000Z,2.48
2023-03-12T08:17:02.000Z,2.53
2023-03-12T08:18:02.000Z,2.59
2023-03-12T08:19:02.000Z,2.62
2023-03-12T08:20:02.000Z,2.69
2023-03-12T08:21:02.000Z,2.71
2023-03-12T08:22:02.000Z,2.74
2023-03-12T08:23:02.000Z,2.79
2023-03-12T08:24:02.000Z,2.84
2023-03-12T08:25:02.000Z,2.87
2023-03-12T08:26:02.000Z,2.90
2023-03-12T08:27:02.000Z,2.97
2023-03-12T08:28:02.000Z,2.99
2023-03-12T08:29:02.000Z,3.04
2023-03-12T08:30:02.000Z,3.07
2023-03-12T08:31:02.000Z,3.07
2023-03-12T08:32:02.000Z,3.12
2023-03-12T08:33:02.000Z,3.13
2023-03-12T08:34:02.000Z,3.15
2023-03-12T08:35:02.000Z,3.16
2023-03-12T08:36:02.000Z,3.19
2023-03-12T08:37:02.000Z,3.25
2023-03-12T08:38:02.000Z,3.30
2023-03-12T08:39:02.000Z,3.35
2023-03-12T08:40:02.000Z,3.42
2023-03-12T08:41:02.000Z,3.50
2023-03-12T08:42:02.000Z,3.54
2023-03-12T08:43:02.000Z,3.59
2023-03-12T08:44:02.000Z,3.68
2023-03-12T08:45:02.000Z,3.74
2023-03-12T08:46:02.000Z,3.82
2023-03-12T08:47:02.000Z,3.88
2023-03-12T08:48:02.000Z,3.93
2023-03-12T08:49:02.000Z,3.95
2023-03-12T08:50:02.000Z,4.02
2023-03-12T08:51:02.000Z,4.10
2023-03-12T08:52:02.000Z,4.13
2023-03-12T08:53:02.000Z,4.18
2023-03-12T08:54:02.000Z,4.24
2023-03-12T08:55:02.000Z,4.28
2023-03-12T08:56:02.000Z,4.31
2023-03-12T08:57:02.000Z,4.36
2023-03-12T08:58:02.000Z,4.43
2023-03-12T08:59:02.000Z,4.46
2023-03-12T09:00:02.000Z,4.50
2023-03-12T09:01:02.000Z,4.51
2023-03-12T09:02:02.000Z,4.61
2023-03-12T09:03:02.000Z,4.62
2023-03-12T09:04:02.000Z,4.67
2023-03-12T09:05:02.000Z,4.71
2023-03-12T09:06:02.000Z,4.74
2023-03-12T09:07:02.000Z,4.79
2023-03-12T09:08:02.000Z,4.83
2023-03-12T09:09:02.000Z,4.87
2023-03-12T09:10:02.000Z,4.90
2023-03-12T09:11:02.000Z,4.94
2023-03-12T09:12:02.000Z,5.01
2023-03-12T09:13:02.000Z,5.05
2023-03-12T09:14:02.000Z,5.09
2023-03-12T09:15:02.000Z,5.12
2023-03-12T09:16:02.000Z,5.19
2023-03-12T09:17:02.000Z,5.22
2023-03-12T09:18:02.000Z,5.20
2023-03-12T09:19:02.000Z,5.29
2023-03-12T09:20:01.000Z,5.27
2023-03-12T09:21:01.000Z,5.29
2023-03-12T09:22:01.000Z,5.30
2023-03-12T09:23:01.000Z,5.32
2023-03-12T09:24:01.000Z,5.33
2023-03-12T09:25:01.000Z,5.29
2023-03-12T09:26:01.000Z,5.30
2023-03-12T09:27:01.000Z,5.35
2023-03-12T09:28:01.000Z,5.38
2023-03-12T09:29:01.000Z,5.42
2023-03-12T09:30:01.000Z,5.47
2023-03-12T09:31:01.000Z,5.49
2023-03-12T09:32:01.000Z,5.58
2023-03-12T09:33:01.000Z,5.59
2023-03-12T09:34:01.000Z,5.58
2023-03-12T09:35:01.000Z,5.60
2023-03-12T09:36:01.000Z,5.66
2023-03-12T09:37:01.000Z,5.69
2023-03-12T09:38:01.000Z,5.74
2023-03-12T09:39:01.000Z,5.78
2023-03-12T09:40:01.000Z,5.83
2023-03-12T09:41:01.000Z,5.87
2023-03-12T09:42:01.000Z,5.93
2023-03-12T09:43:01.000Z,5.98
2023-03-12T09:44:01.000Z,6.02
2023-03-12T09:45:01.000Z,6.05
2023-03-12T09:46:01.000Z,6.08
2023-03-12T09:47:01.000Z,6.14
2023-03-12T09:48:01.000Z,6.16
2023-03-12T09:49:01.000Z,6.21
2023-03-12T09:50:01.000Z,6.28
2023-03-12T09:51:01.000Z,6.35
2023-03-12T09:52:01.000Z,6.38
2023-03-12T09:53:01.000Z,6.40
2023-03-12T09:54:01.000Z,6.42
2023-03-12T09:55:01.000Z,6.48
2023-03-12T09:56:01.000Z,6.51
2023-03-12T09:57:01.000Z,6.54
2023-03-12T09:58:01.000Z,6.58
2023-03-12T09:59:01.000Z,6.64
2023-03-12T10:00:01.000Z,6.75
2023-03-12T10:01:01.000Z,6.79
2023-03-12T10:02:01.000Z,6.82
2023-03-12T10:03:01.000Z,6.86
2023-03-12T10:04:01.000Z,6.91
2023-03-12T10:05:01.000Z,6.94
2023-03-12T10:06:01.000Z,7.00
2023-03-12T10:07:01.000Z,7.01
2023-03-12T10:08:01.000Z,7.08
2023-03-12T10:09:01.000Z,7.09
2023-03-12T10:10:01.000Z,7.14
2023-03-12T10:11:01.000Z,7.11
2023-03-12T10:12:01.000Z,7.09
2023-03-12T10:13:01.000Z,7.11
2023-03-12T10:14:01.000Z,7.09
2023-03-12T10:15:01.000Z,7.05
2023-03-12T10:16:01.000Z,7.01
2023-03-12T10:17:01.000Z,7.05
2023-03-12T10:18:01.000Z,7.04
2023-03-12T10:19:01.000Z,7.07
2023-03-12T10:20:01.000Z,7.07
2023-03-12T10:21:01.000Z,7.07
2023-03-12T10:22:01.000Z,7.09
2023-03-12T10:23:01.000Z,7.12
2023-03-12T10:24:01.000Z,7.15
2023-03-12T10:25:01.000Z,7.15
2023-03-12T10:26:01.000Z,7.12
2023-03-12T10:27:01.000Z,7.14
2023-03-12T10:28:01.000Z,7.11
2023-03-12T10:29:01.000Z,7.09
2023-03-12T10:30:01.000Z,7.07
2023-03-12T10:31:01.000Z,7.01
2023-03-12T10:32:01.000Z,7.04
2023-03-12T10:33:01.000Z,7.07
2023-03-12T10:34:01.000Z,7.07
2023-03-12T10:35:01.000Z,7.12
2023-03-12T10:36:01.000Z,7.16
2023-03-12T10:37:01.000Z,7.29
2023-03-12T10:38:01.000Z,7.36
2023-03-12T10:39:01.000Z,7.44
2023-03-12T10:40:01.000Z,7.47
2023-03-12T10:41:01.000Z,7.50
2023-03-12T10:42:01.000Z,7.57
2023-03-12T10:43:01.000Z,7.57
2023-03-12T10:44:01.000Z,7.57
2023-03-12T10:45:01.000Z,7.55
2023-03-12T10:46:01.000Z,7.52
2023-03-12T10:47:01.000Z,7.58
2023-03-12T10:48:01.000Z,7.63
2023-03-12T10:49:01.000Z,7.69
2023-03-12T10:50:01.000Z,7.74
2023-03-12T10:51:01.000Z,7.85
2023-03-12T10:52:01.000Z,7.88
2023-03-12T10:53:01.000Z,7.94
2023-03-12T10:54:01.000Z,8.02
2023-03-12T10:55:01.000Z,8.04
2023-03-12T10:56:01.000Z,8.12
2023-03-12T10:57:01.000Z,8.13
2023-03-12T10:58:01.000Z,8.14
2023-03-12T10:59:01.000Z,8.20
2023-03-12T11:00:01.000Z,8.20
2023-03-12T11:01:01.000Z,8.24
2023-03-12T11:02:01.000Z,8.22
2023-03-12T11:03:01.000Z,8.24
2023-03-12T11:04:00.000Z,8.27
2023-03-12T11:05:00.000Z,8.27
2023-03-12T11:06:00.000Z,8.32
2023-03-12T11:07:00.000Z,8.31
2023-03-12T11:08:00.000Z,8.37
2023-03-12T11:09:00.000Z,8.34
2023-03-12T11:10:00.000Z,8.36
2023-03-12T11:11:00.000Z,8.29
2023-03-12T11:12:00.000Z,8.28
2023-03-12T11:13:00.000Z,8.28
2023-03-12T11:14:00.000Z,8.31
2023-03-12T11:15:00.000Z,8.31
2023-03-12T11:16:00.000Z,8.31
2023-03-12T11:17:00.000Z,8.32
2023-03-12T11:18:00.000Z,8.32
2023-03-12T11:19:00.000Z,8.36
2023-03-12T11:20:00.000Z,8.42
2023-03-12T11:21:00.000Z,8.50
2023-03-12T11:22:00.000Z,8.50
2023-03-12T11:23:00.000Z,8.57
2023-03-12T11:24:00.000Z,8.64
2023-03-12T11:25:00.000Z,8.70
2023-03-12T11:26:00.000Z,8.85
2023-03-12T11:27:00.000Z,8.91
2023-03-12T11:28:00.000Z,8.98
2023-03-12T11:29:00.000Z,9.08
2023-03-12T11:30:00.000Z,9.10
2023-03-12T11:31:00.000Z,9.13
2023-03-12T11:32:00.000Z,9.13
2023-03-12T11:33:00.000Z,9.15
2023-03-12T11:34:00.000Z,9.12
2023-03-12T11:35:00.000Z,9.12
2023-03-12T11:36:00.000Z,9.04
2023-03-12T11:37:00.000Z,9.01
2023-03-12T11:38:00.000Z,9.04
2023-03-12T11:39:00.000Z,9.04
2023-03-12T11:40:00.000Z,9.12
2023-03-12T11:41:00.000Z,9.10
2023-03-12T11:42:00.000Z,9.15
2023-03-12T11:43:00.000Z,9.17
2023-03-12T11:44:00.000Z,9.20
2023-03-12T11:45:00.000Z,9.19
2023-03-12T11:46:00.000Z,9.20
2023-03-12T11:47:00.000Z,9.17
2023-03-12T11:48:00.000Z,9.20
2023-03-12T11:49:00.000Z,9.24
2023-03-12T11:50:00.000Z,9.31
2023-03-12T11:51:00.000Z,9.34
2023-03-12T11:52:00.000Z,9.35
2023-03-12T11:53:00.000Z,9.37
2023-03-12T11:54:00.000Z,9.40
2023-03-12T11:55:00.000Z,9.41
2023-03-12T11:56:00.000Z,9.42
2023-03-12T11:57:00.000Z,9.48
2023-03-12T11:58:00.000Z,9.45
2023-03-12T11:59:00.000Z,9.49
2023-03-12T12:00:00.000Z,9.44
2023-03-12T12:01:00.000Z,9.44
2023-03-12T12:02:00.000Z,9.42
2023-03-12T12:03:00.000Z,9.41
2023-03-12T12:04:00.000Z,9.45
2023-03-12T12:05:00.000Z,9.48
2023-03-12T12:06:00.000Z,9.48
2023-03-12T12:07:00.000Z,9.44
2023-03-12T12:08:00.000Z,9.41
2023-03-12T12:09:00.000Z,9.32
2023-03-12T12:10:00.000Z,9.26
2023-03-12T12:11:00.000Z,9.22
2023-03-12T12:12:00.000Z,9.19
2023-03-12T12:13:00.000Z,9.20
2023-03-12T12:14:00.000Z,9.23
2023-03-12T12:15:00.000Z,9.24
2023-03-12T12:16:00.000Z,9.34
2023-03-12T12:17:00.000Z,9.38
2023-03-12T12:18:00.000Z,9.45
2023-03-12T12:19:00.000Z,9.48
2023-03-12T12:20:00.000Z,9.55
2023-03-12T12:21:00.000Z,9.53
2023-03-12T12:22:00.000Z,9.52
2023-03-12T12:23:00.000Z,9.44
2023-03-12T12:24:00.000Z,9.41
2023-03-12T12:25:00.000Z,9.31
2023-03-12T12:26:00.000Z,9.26
2023-03-12T12:27:00.000Z,9.23
2023-03-12T12:28:00.000Z,9.22
2023-03-12T12:29:00.000Z,9.22
2023-03-12T12:30:00.000Z,9.22
2023-03-12T12:31:00.000Z,9.22
2023-03-12T12:32:00.000Z,9.20
2023-03-12T12:33:00.000Z,9.17
2023-03-12T12:34:00.000Z,9.19
2023-03-12T12:35:00.000Z,9.13
2023-03-12T12:36:00.000Z,9.12
2023-03-12T12:37:00.000Z,9.01
2023-03-12T12:38:00.000Z,8.97
2023-03-12T12:39:00.000Z,8.94
2023-03-12T12:40:00.000Z,8.85
2023-03-12T12:41:00.000Z,8.83
2023-03-12T12:42:00.000Z,8.79
2023-03-12T12:43:00.000Z,8.75
2023-03-12T12:44:00.000Z,8.75
2023-03-12T12:45:00.000Z,8.75
2023-03-12T12:45:59.000Z,8.68
2023-03-12T12:46:59.000Z,8.71
2023-03-12T12:47:59.000Z,8.71
2023-03-12T12:48:59.000Z,8.71
2023-03-12T12:49:59.000Z,8.68
2023-03-12T12:50:59.000Z,8.73
2023-03-12T12:51:59.000Z,8.73
2023-03-12T12:52:59.000Z,8.76
2023-03-12T12:53:59.000Z,8.70
2023-03-12T12:54:59.000Z,8.70
2023-03-12T12:55:59.000Z,8.70
2023-03-12T12:56:59.000Z,8.65
2023-03-12T12:57:59.000Z,8.64
2023-03-12T12:58:59.000Z,8.60